Time;durP1;ratioP1;P1;durP2;ratioP2;P2;SDS_P1;SDS_P2;PMS_P1;PMS_P2;Temp;Humidity;BMP_temperature;BMP_pressure;BME280_temperature;BME280_humidity;BME280_pressure;Samples;Min_cycle;Max_cycle;Signal;HPM_P1;HPM_P2
2023/09/03 00:01:02;;;;;;;12.30;11.20;;;;;;;17.84;100.00;100253.84;4771267;30;20039;-91
2023/09/03 00:03:27;;;;;;;12.70;11.35;;;;;;;17.81;100.00;100249.63;4770992;30;20031;-90
2023/09/03 00:05:56;;;;;;;12.45;11.32;;;;;;;17.82;100.00;100255.75;4771324;30;20028;-92
2023/09/03 00:08:22;;;;;;;11.65;10.55;;;;;;;17.80;100.00;100245.31;4770803;30;20030;-91
2023/09/03 00:10:52;;;;;;;11.68;10.57;;;;;;;17.80;100.00;100247.09;4770917;30;20066;-91
2023/09/03 00:13:18;;;;;;;12.80;11.43;;;;;;;17.80;100.00;100244.47;4770356;30;20114;-90
2023/09/03 00:15:43;;;;;;;12.07;10.98;;;;;;;17.79;100.00;100251.53;4770701;30;20114;-91
2023/09/03 00:18:11;;;;;;;13.70;11.65;;;;;;;17.74;100.00;100244.84;4770923;30;20577;-91
2023/09/03 00:20:37;;;;;;;12.27;11.07;;;;;;;17.75;100.00;100250.06;4770709;30;20123;-91
2023/09/03 00:23:02;;;;;;;11.93;10.82;;;;;;;17.70;100.00;100247.69;4771311;30;20059;-91
2023/09/03 00:25:28;;;;;;;12.32;11.23;;;;;;;17.63;100.00;100230.59;4770736;30;20442;-92
2023/09/03 00:27:53;;;;;;;10.85;9.75;;;;;;;17.72;100.00;100247.59;4770540;30;20532;-90
2023/09/03 00:30:18;;;;;;;11.98;10.85;;;;;;;17.69;100.00;100255.69;4770867;30;20463;-92
2023/09/03 00:33:30;;;;;;;12.23;11.05;;;;;;;17.71;100.00;100259.06;4770457;30;20035;-91
2023/09/03 00:35:56;;;;;;;;;;;;;;;17.65;100.00;100257.66;4771088;30;20063;-91
2023/09/03 00:38:22;;;;;;;11.13;10.05;;;;;;;17.59;100.00;100252.81;4770973;30;19963;-91
2023/09/03 00:40:47;;;;;;;12.88;11.68;;;;;;;17.61;100.00;100255.34;4770341;30;20043;-91
2023/09/03 00:43:12;;;;;;;11.10;10.10;;;;;;;17.62;100.00;100275.50;4770597;30;20063;-91
2023/09/03 00:45:41;;;;;;;11.57;10.40;;;;;;;17.60;100.00;100272.94;4770467;30;20394;-90
2023/09/03 00:48:09;;;;;;;11.13;10.10;;;;;;;17.59;100.00;100268.63;4770603;30;20051;-90
2023/09/03 00:50:36;;;;;;;11.20;9.98;;;;;;;17.59;100.00;100270.41;4770218;30;20035;-91
2023/09/03 00:53:02;;;;;;;10.93;9.85;;;;;;;17.57;100.00;100269.66;4770609;30;20393;-91
2023/09/03 00:55:28;;;;;;;10.70;9.60;;;;;;;17.41;100.00;100238.25;4770363;30;20042;-92
2023/09/03 00:57:55;;;;;;;10.85;9.85;;;;;;;17.51;100.00;100260.38;4770357;30;20034;-91
2023/09/03 01:00:20;;;;;;;11.52;10.38;;;;;;;17.49;100.00;100257.03;4770553;30;20046;-91
2023/09/03 01:02:47;;;;;;;10.05;8.93;;;;;;;17.14;100.00;100202.22;4769986;30;20031;-91
2023/09/03 01:05:13;;;;;;;10.93;9.80;;;;;;;17.26;100.00;100221.63;4770653;30;20540;-92
2023/09/03 01:17:52;;;;;;;15.55;9.93;;;;;;;17.31;100.00;100256.41;4786641;30;20534;-91
2023/09/03 01:20:27;;;;;;;10.02;9.13;;;;;;;17.18;100.00;100240.56;4770363;30;20085;-90
2023/09/03 01:23:07;;;;;;;10.55;9.45;;;;;;;17.25;100.00;100253.34;4770444;30;20126;-92
2023/09/03 01:25:54;;;;;;;10.55;9.55;;;;;;;17.20;100.00;100248.38;4772614;30;20031;-91
2023/09/03 01:28:23;;;;;;;9.65;8.85;;;;;;;17.07;100.00;100237.78;4773912;30;20031;-91
2023/09/03 01:30:51;;;;;;;10.20;9.13;;;;;;;17.04;100.00;100226.63;4773474;30;20036;-91
2023/09/03 01:33:20;;;;;;;10.73;9.63;;;;;;;17.19;100.00;100247.53;4773511;30;20034;-91
2023/09/03 01:35:48;;;;;;;11.43;10.32;;;;;;;17.20;100.00;100243.97;4788266;30;20031;-90
2023/09/03 01:38:14;;;;;;;10.82;9.60;;;;;;;17.18;100.00;100245.81;4773821;30;20409;-90
2023/09/03 01:40:40;;;;;;;10.40;9.40;;;;;;;17.24;100.00;100246.41;4773198;30;20031;-91
2023/09/03 01:43:05;;;;;;;10.05;9.05;;;;;;;17.16;100.00;100231.09;4773684;30;20031;-91
2023/09/03 01:45:51;;;;;;;11.38;10.27;;;;;;;16.71;100.00;100162.84;4773313;30;20389;-92
2023/09/03 01:48:41;;;;;;;10.77;9.38;;;;;;;17.20;100.00;100241.31;4772980;30;20051;-91
2023/09/03 01:51:40;;;;;;;11.27;10.10;;;;;;;17.25;100.00;100251.56;4789668;30;20039;-91
2023/09/03 01:57:35;;;;;;;9.95;8.73;;;;;;;17.08;100.00;100223.69;4789863;30;20045;-91
2023/09/03 02:00:07;;;;;;;10.93;9.88;;;;;;;17.13;100.00;100242.66;4773385;30;20123;-91
2023/09/03 02:02:34;;;;;;;9.40;8.50;;;;;;;17.12;100.00;100246.22;4773085;30;20035;-91
2023/09/03 02:04:59;;;;;;;10.48;9.02;;;;;;;17.10;100.00;100252.53;4773184;30;20039;-91
2023/09/03 02:07:25;;;;;;;10.15;8.98;;;;;;;17.00;100.00;100243.53;4773085;30;20027;-90
2023/09/03 02:09:50;;;;;;;11.20;9.73;;;;;;;17.04;100.00;100256.41;4772985;30;20481;-92
2023/09/03 02:12:23;;;;;;;9.95;8.93;;;;;;;17.01;100.00;100248.69;4773019;30;20401;-90
2023/09/03 02:14:49;;;;;;;10.63;9.52;;;;;;;16.99;100.00;100247.97;4772454;30;20176;-92
2023/09/03 02:17:19;;;;;;;12.75;10.25;;;;;;;16.98;100.00;100245.41;4773032;30;20031;-92
2023/09/03 02:19:45;;;;;;;11.32;10.23;;;;;;;16.91;100.00;100231.81;4772415;30;20027;-90
2023/09/03 02:22:10;;;;;;;10.43;9.45;;;;;;;16.91;100.00;100243.19;4773097;30;20070;-91
2023/09/03 02:24:35;;;;;;;11.43;10.00;;;;;;;16.86;100.00;100237.38;4772519;30;20031;-92
2023/09/03 02:27:01;;;;;;;10.70;9.60;;;;;;;16.84;100.00;100244.50;4772823;30;20034;-91
2023/09/03 02:29:26;;;;;;;10.88;9.77;;;;;;;16.83;100.00;100244.63;4772698;30;20031;-91
2023/09/03 02:31:51;;;;;;;10.57;9.45;;;;;;;16.79;100.00;100237.84;4772465;30;20133;-91
2023/09/03 02:34:18;;;;;;;9.88;8.93;;;;;;;16.78;100.00;100244.91;4772750;30;20027;-91
2023/09/03 02:36:43;;;;;;;10.40;9.27;;;;;;;16.61;100.00;100235.41;4771510;30;20448;-91
2023/09/03 02:39:08;;;;;;;11.88;10.15;;;;;;;16.62;100.00;100231.00;4772653;30;20031;-91
2023/09/03 02:41:34;;;;;;;10.18;9.23;;;;;;;16.68;100.00;100243.75;4768367;30;20489;-91
2023/09/03 02:44:01;;;;;;;9.82;8.93;;;;;;;16.62;100.00;100244.13;4753642;30;20060;-91
2023/09/03 02:46:27;;;;;;;11.23;9.90;;;;;;;16.60;100.00;100243.38;4768621;30;20035;-91
2023/09/03 02:48:52;;;;;;;11.23;8.75;;;;;;;16.58;100.00;100246.09;4767982;30;20055;-91
2023/09/03 02:51:18;;;;;;;10.20;9.20;;;;;;;16.17;100.00;100186.41;4768568;30;20074;-91
2023/09/03 02:53:45;;;;;;;10.27;9.38;;;;;;;16.46;100.00;100244.22;4768235;30;20516;-91
2023/09/03 02:56:12;;;;;;;9.32;8.48;;;;;;;16.15;100.00;100200.59;4768290;30;20035;-90
2023/09/03 02:58:38;;;;;;;10.45;9.20;;;;;;;16.40;100.00;100255.13;4768143;30;20490;-91
2023/09/03 03:01:11;;;;;;;10.60;9.45;;;;;;;16.38;100.00;100252.59;4768323;30;20040;-90
2023/09/03 03:03:36;;;;;;;12.77;10.25;;;;;;;16.26;100.00;100231.47;4767906;30;20035;-91
2023/09/03 03:06:02;;;;;;;11.20;10.18;;;;;;;16.01;100.00;100201.41;4768285;30;20038;-91
2023/09/03 03:08:27;;;;;;;11.65;9.93;;;;;;;16.25;100.00;100242.91;4768110;30;20031;-91
2023/09/03 03:11:03;;;;;;;11.65;10.35;;;;;;;16.13;100.00;100226.94;4753179;30;20035;-91
2023/09/03 03:13:29;;;;;;;11.00;9.77;;;;;;;16.19;100.00;100244.16;4770188;30;20469;-91
2023/09/03 03:15:54;;;;;;;10.05;9.10;;;;;;;16.23;100.00;100239.56;4771840;30;20110;-91
2023/09/03 03:18:19;;;;;;;10.32;9.32;;;;;;;16.20;100.00;100237.94;4772115;30;20043;-91
2023/09/03 03:20:45;;;;;;;10.88;9.75;;;;;;;16.18;100.00;100245.06;4771758;30;20481;-91
2023/09/03 03:23:10;;;;;;;9.90;8.82;;;;;;;16.18;100.00;100245.06;4772084;30;20489;-90
2023/09/03 03:25:35;;;;;;;10.05;9.13;;;;;;;16.10;100.00;100240.28;4771508;30;20178;-92
2023/09/03 03:28:01;;;;;;;9.60;8.70;;;;;;;16.11;100.00;100249.84;4772135;30;20027;-91
2023/09/03 03:30:26;;;;;;;10.52;9.50;;;;;;;16.05;100.00;100241.47;4771821;30;20027;-91
2023/09/03 03:32:52;;;;;;;9.55;8.23;;;;;;;16.09;100.00;100248.25;4785242;30;20043;-91
2023/09/03 03:35:17;;;;;;;10.55;9.50;;;;;;;16.01;100.00;100238.19;4770509;30;20054;-91
2023/09/03 03:37:44;;;;;;;9.65;8.73;;;;;;;16.02;100.00;100233.81;4770404;30;20379;-91
2023/09/03 03:40:10;;;;;;;11.18;10.00;;;;;;;16.00;100.00;100243.53;4770712;30;20027;-91
2023/09/03 03:42:35;;;;;;;10.30;9.25;;;;;;;15.82;100.00;100221.84;4770104;30;20138;-91
2023/09/03 03:45:01;;;;;;;11.15;9.85;;;;;;;15.69;100.00;100213.84;4770505;30;20051;-92
2023/09/03 03:47:26;;;;;;;10.25;9.05;;;;;;;15.77;100.00;100232.63;4770434;30;20054;-91
2023/09/03 03:49:51;;;;;;;10.82;9.75;;;;;;;15.83;100.00;100239.28;4770475;30;20089;-91
2023/09/03 03:52:17;;;;;;;11.02;9.93;;;;;;;15.79;100.00;100232.53;4770448;30;20130;-91
2023/09/03 03:54:43;;;;;;;11.52;10.43;;;;;;;15.74;100.00;100231.94;4769972;30;20031;-92
2023/09/03 03:57:08;;;;;;;11.05;9.98;;;;;;;15.77;100.00;100237.88;4770465;30;20118;-92
2023/09/03 03:59:34;;;;;;;11.25;10.15;;;;;;;15.80;100.00;100244.72;4770339;30;20520;-91
2023/09/03 04:01:59;;;;;;;10.30;9.25;;;;;;;15.78;100.00;100250.06;4770069;29;20121;-91
2023/09/03 04:04:24;;;;;;;10.00;8.98;;;;;;;15.64;100.00;100224.63;4771100;30;20551;-91
2023/09/03 04:06:50;;;;;;;10.07;9.00;;;;;;;15.77;100.00;100251.00;4770959;30;20031;-91
2023/09/03 04:09:15;;;;;;;11.77;9.63;;;;;;;15.75;100.00;100244.16;4771448;30;20035;-91
2023/09/03 04:11:40;;;;;;;11.18;10.07;;;;;;;15.76;100.00;100259.84;4771012;30;20031;-91
2023/09/03 04:14:06;;;;;;;11.27;9.65;;;;;;;15.23;100.00;100177.94;4771304;30;20620;-92
2023/09/03 04:16:31;;;;;;;11.82;10.63;;;;;;;15.73;100.00;100257.38;4770844;30;20454;-91
2023/09/03 04:18:57;;;;;;;10.75;9.75;;;;;;;15.44;100.00;100206.53;4770994;30;20051;-91
2023/09/03 04:21:22;;;;;;;11.80;9.50;;;;;;;15.69;100.00;100240.94;4771351;30;20114;-91
2023/09/03 04:23:48;;;;;;;11.73;9.73;;;;;;;15.52;100.00;100216.59;4770844;30;20374;-91
2023/09/03 04:26:13;;;;;;;10.52;9.52;;;;;;;15.78;100.00;100252.69;4771071;30;20340;-90
2023/09/03 04:28:40;;;;;;;10.05;9.07;;;;;;;15.76;100.00;100237.94;4770832;30;20066;-91
2023/09/03 04:31:08;;;;;;;11.77;10.13;;;;;;;15.82;100.00;100233.19;4771120;30;20041;-91
2023/09/03 04:33:36;;;;;;;11.35;9.73;;;;;;;15.85;100.00;100245.31;4770957;30;20182;-91
2023/09/03 04:36:03;;;;;;;12.10;10.73;;;;;;;15.84;100.00;100244.44;4770701;30;20455;-91
2023/09/03 04:38:29;;;;;;;11.68;10.27;;;;;;;15.88;100.00;100253.81;4770753;30;20027;-91
2023/09/03 04:40:55;;;;;;;11.35;10.25;;;;;;;15.78;100.00;100247.44;4770758;30;20031;-92
2023/09/03 04:43:23;;;;;;;11.82;10.00;;;;;;;15.88;100.00;100277.47;4770747;29;20058;-91
2023/09/03 04:45:52;;;;;;;10.85;9.77;;;;;;;15.91;100.00;100279.94;4770699;30;20122;-91
2023/09/03 04:48:19;;;;;;;12.27;10.80;;;;;;;15.97;100.00;100270.88;4770616;30;20559;-91
2023/09/03 04:50:45;;;;;;;14.30;12.68;;;;;;;16.00;100.00;100264.56;4770456;30;20093;-91
2023/09/03 04:53:13;;;;;;;12.85;11.48;;;;;;;16.04;100.00;100266.91;4770711;30;20050;-91
2023/09/03 04:55:40;;;;;;;12.75;11.55;;;;;;;16.08;100.00;100272.84;4770665;30;20454;-91
2023/09/03 04:58:05;;;;;;;11.68;10.48;;;;;;;16.14;100.00;100270.69;4770778;30;20039;-91
2023/09/03 05:00:31;;;;;;;10.80;9.80;;;;;;;16.22;100.00;100278.09;4772958;30;20031;-91
2023/09/03 05:02:57;;;;;;;11.25;10.15;;;;;;;16.31;100.00;100279.38;4774199;30;20034;-92
2023/09/03 05:05:23;;;;;;;12.18;10.95;;;;;;;16.16;100.00;100233.81;4774313;30;20027;-92
2023/09/03 05:07:48;;;;;;;12.85;11.68;;;;;;;16.49;100.00;100280.88;4774085;30;20084;-92
2023/09/03 05:10:14;;;;;;;12.40;10.45;;;;;;;16.57;100.00;100275.97;4774240;30;20469;-90
2023/09/03 05:12:43;;;;;;;13.82;12.40;;;;;;;16.50;100.00;100255.41;4773895;30;20454;-91
2023/09/03 05:15:10;;;;;;;12.73;11.52;;;;;;;16.62;100.00;100265.19;4774355;30;20379;-91
2023/09/03 05:17:35;;;;;;;12.10;10.90;;;;;;;16.73;100.00;100268.03;4790223;30;20073;-91
2023/09/03 05:20:01;;;;;;;11.20;10.10;;;;;;;16.90;100.00;100291.50;4773935;30;20031;-91
2023/09/03 05:22:27;;;;;;;12.02;10.82;;;;;;;16.93;100.00;100303.59;4774990;30;20118;-92
2023/09/03 05:25:15;;;;;;;11.25;10.15;;;;;;;16.95;100.00;100299.09;4723556;30;20056;-93
2023/09/03 05:28:23;;;;;;;12.88;11.35;;;;;;;16.88;100.00;100282.00;4700689;30;20094;-93
2023/09/03 05:31:11;;;;;;;13.27;12.07;;;;;;;17.03;100.00;100298.63;4649349;30;20051;-93
2023/09/03 05:33:59;;;;;;;12.52;11.23;;;;;;;17.04;100.00;100295.03;4620659;31;20126;-93
2023/09/03 05:40:51;;;;;;;12.00;10.80;;;;;;;17.07;100.00;100321.19;4583613;31;20086;-93
2023/09/03 06:51:06;;;;;;;6.53;5.93;;;;;;;21.36;98.60;100352.16;4771860;30;20220;-95
2023/09/03 06:54:58;;;;;;;6.93;6.22;;;;;;;21.29;99.55;100354.44;4752122;30;20111;-94
2023/09/03 06:58:27;;;;;;;8.88;6.47;;;;;;;20.76;98.85;100269.50;4734917;30;20110;-93
2023/09/03 07:28:51;;;;;;;8.40;6.57;;;;;;;24.16;85.43;100322.63;4630355;30;20097;-93
2023/09/03 07:36:00;;;;;;;7.20;6.50;;;;;;;26.07;79.49;100376.19;4581996;31;20093;-94
2023/09/03 07:39:36;;;;;;;6.85;5.90;;;;;;;27.98;76.03;100381.31;4548382;31;20073;-93
2023/09/03 07:43:19;;;;;;;10.45;6.47;;;;;;;29.77;69.01;100374.69;4547261;31;20044;-93
2023/09/03 07:46:25;;;;;;;9.45;5.22;;;;;;;31.20;66.87;100374.66;4530336;31;20434;-93
2023/09/03 07:48:50;;;;;;;6.53;5.50;;;;;;;31.64;62.40;100368.34;4500422;31;20115;-90
2023/09/03 07:51:17;;;;;;;7.43;5.40;;;;;;;31.86;62.19;100377.31;4513785;31;20476;-91
2023/09/03 07:53:42;;;;;;;8.27;5.43;;;;;;;31.87;62.28;100384.38;4513724;31;20057;-90
2023/09/03 07:56:08;;;;;;;8.23;5.85;;;;;;;31.94;62.81;100396.03;4513751;31;20450;-92
2023/09/03 07:58:33;;;;;;;6.55;5.90;;;;;;;31.50;61.66;100381.69;4513876;31;20533;-91
2023/09/03 08:01:00;;;;;;;6.03;5.43;;;;;;;30.60;62.54;100379.22;4514203;31;20047;-90
2023/09/03 08:03:34;;;;;;;5.40;4.55;;;;;;;29.72;64.88;100401.22;4498619;31;20578;-93
2023/09/03 08:06:01;;;;;;;5.35;4.50;;;;;;;29.04;65.77;100378.56;4497826;31;20050;-91
2023/09/03 08:08:27;;;;;;;6.35;5.22;;;;;;;28.61;66.00;100399.41;4514662;31;20148;-92
2023/09/03 08:10:52;;;;;;;7.38;4.90;;;;;;;28.29;67.05;100403.78;4514566;31;20047;-92
2023/09/03 08:13:18;;;;;;;5.15;4.30;;;;;;;27.95;68.52;100395.06;4540230;31;20182;-92
2023/09/03 08:15:43;;;;;;;7.70;5.03;;;;;;;27.66;68.37;100406.19;4545949;31;20081;-92
2023/09/03 08:18:08;;;;;;;6.05;5.38;;;;;;;27.18;69.20;100413.03;4547198;31;20053;-90
2023/09/03 08:23:59;;;;;;;5.95;5.00;;;;;;;26.21;73.06;100395.31;4586874;31;20154;-96
2023/09/03 08:26:24;;;;;;;6.80;4.50;;;;;;;25.87;72.39;100385.34;4656963;30;20535;-87
2023/09/03 08:28:50;;;;;;;5.13;3.70;;;;;;;25.70;72.63;100394.97;4721864;30;20115;-86
2023/09/03 08:31:15;;;;;;;4.82;4.30;;;;;;;25.68;71.19;100390.78;4722054;30;20464;-87
2023/09/03 08:33:40;;;;;;;6.50;3.60;;;;;;;25.59;71.18;100398.72;4758491;30;20044;-87
2023/09/03 08:36:06;;;;;;;4.22;3.83;;;;;;;25.51;71.05;100385.28;4765784;30;20119;-87
2023/09/03 08:38:32;;;;;;;4.70;4.25;;;;;;;25.05;71.60;100372.88;4751258;30;20078;-87
2023/09/03 08:40:57;;;;;;;4.43;4.03;;;;;;;24.81;73.21;100392.03;4765748;30;20531;-88
2023/09/03 08:43:25;;;;;;;5.05;4.30;;;;;;;24.57;73.58;100409.34;4774361;29;20051;-89
2023/09/03 08:45:56;;;;;;;4.40;3.95;;;;;;;24.26;76.39;100405.13;4752442;30;20031;-89
2023/09/03 08:48:22;;;;;;;4.63;4.22;;;;;;;24.17;77.77;100414.81;4752334;30;20090;-90
2023/09/03 08:50:47;;;;;;;7.60;4.40;;;;;;;24.04;78.10;100409.75;4751114;30;20150;-90
2023/09/03 08:53:14;;;;;;;4.43;3.92;;;;;;;23.97;78.29;100411.28;4758424;30;20031;-89
2023/09/03 08:55:40;;;;;;;4.20;3.80;;;;;;;23.83;79.29;100385.94;4731724;30;20041;-87
2023/09/03 08:58:05;;;;;;;4.28;3.83;;;;;;;23.86;80.45;100390.16;4736490;30;20027;-88
2023/09/03 09:00:32;;;;;;;6.22;4.40;;;;;;;23.92;79.78;100391.41;4745982;30;20087;-88
2023/09/03 09:02:59;;;;;;;4.80;4.30;;;;;;;24.00;80.04;100407.53;4755625;30;20121;-86
2023/09/03 09:05:26;;;;;;;4.82;3.97;;;;;;;23.81;79.11;100355.16;4733631;30;20559;-88
2023/09/03 09:07:51;;;;;;;3.65;3.35;;;;;;;24.19;78.46;100396.03;4731792;30;20060;-88
2023/09/03 09:10:22;;;;;;;4.80;4.32;;;;;;;24.11;76.51;100396.75;4737137;30;20059;-90
2023/09/03 09:12:56;;;;;;;4.22;3.55;;;;;;;24.03;76.42;100375.31;4748668;30;20034;-90
2023/09/03 09:15:21;;;;;;;5.18;3.80;;;;;;;24.27;75.36;100404.13;4735287;30;20121;-88
2023/09/03 09:17:48;;;;;;;3.13;2.92;;;;;;;24.07;69.71;100366.06;4731913;30;20052;-87
2023/09/03 09:20:14;;;;;;;3.10;2.80;;;;;;;24.24;68.10;100404.44;4732795;30;20029;-88
2023/09/03 09:22:44;;;;;;;3.85;3.30;;;;;;;23.93;69.15;100396.56;4733010;30;20434;-89
2023/09/03 09:25:24;;;;;;;4.20;3.15;;;;;;;23.64;69.30;100410.69;4712696;30;20061;-89
2023/09/03 09:27:51;;;;;;;3.72;3.42;;;;;;;23.60;72.86;100414.59;4698889;30;20029;-92
2023/09/03 09:30:19;;;;;;;3.63;3.30;;;;;;;23.68;74.56;100407.75;4708023;30;20040;-88
2023/09/03 09:32:45;;;;;;;3.60;3.30;;;;;;;23.65;74.76;100395.59;4715872;30;20037;-86
2023/09/03 09:35:22;;;;;;;4.45;3.25;;;;;;;23.67;75.84;100369.69;4715504;30;20045;-88
2023/09/03 09:37:47;;;;;;;3.40;3.10;;;;;;;23.92;74.68;100396.72;4716154;30;20056;-88
2023/09/03 09:40:14;;;;;;;3.45;3.15;;;;;;;23.84;74.55;100386.78;4715857;30;20094;-88
2023/09/03 09:42:56;;;;;;;3.47;3.15;;;;;;;24.10;74.17;100427.84;4715936;30;20091;-89
2023/09/03 09:45:21;;;;;;;3.30;2.80;;;;;;;23.99;74.12;100425.31;4713427;30;20080;-88
2023/09/03 09:48:01;;;;;;;3.13;2.83;;;;;;;23.89;73.47;100395.19;4698809;30;20034;-88
2023/09/03 09:50:40;;;;;;;3.45;3.10;;;;;;;23.97;70.19;100391.81;4701660;30;20041;-89
2023/09/03 09:53:20;;;;;;;4.38;3.08;;;;;;;23.69;69.58;100381.03;4715105;30;20065;-89
2023/09/03 09:55:46;;;;;;;3.72;3.17;;;;;;;23.84;72.01;100408.06;4726376;30;20388;-88
2023/09/03 09:58:12;;;;;;;3.50;3.20;;;;;;;23.93;70.68;100404.56;4731266;30;20146;-88
2023/09/03 10:00:41;;;;;;;3.65;3.05;;;;;;;24.09;71.15;100417.31;4737760;30;20082;-88
2023/09/03 10:03:07;;;;;;;3.85;3.45;;;;;;;24.21;71.07;100434.84;4752755;30;20107;-88
2023/09/03 10:05:34;;;;;;;3.70;3.28;;;;;;;24.27;72.75;100434.28;4737201;30;20040;-88
2023/09/03 10:08:00;;;;;;;3.13;2.72;;;;;;;24.26;71.06;100416.63;4737033;30;20043;-88
2023/09/03 10:10:25;;;;;;;3.47;3.10;;;;;;;24.01;70.22;100385.25;4736883;30;20036;-88
2023/09/03 10:12:51;;;;;;;3.38;2.90;;;;;;;23.93;68.44;100369.13;4752883;30;20510;-89
2023/09/03 10:15:17;;;;;;;3.13;2.70;;;;;;;23.96;69.11;100377.69;4752655;30;20075;-89
2023/09/03 10:17:48;;;;;;;3.15;2.80;;;;;;;24.04;68.76;100383.16;4736976;30;20036;-89
2023/09/03 10:20:20;;;;;;;3.80;3.22;;;;;;;24.05;67.34;100366.19;4736742;30;20081;-88
2023/09/03 10:22:47;;;;;;;;;;;;;;;24.32;69.70;100418.72;4737037;30;20043;-86
2023/09/03 10:25:16;;;;;;;3.33;2.72;;;;;;;24.08;68.09;100397.84;4733366;30;20009;-86
2023/09/03 10:27:47;;;;;;;2.83;2.63;;;;;;;23.95;69.76;100385.81;4737011;30;20125;-86
2023/09/03 10:33:35;;;;;;;3.45;3.15;;;;;;;24.13;70.41;100414.25;4752530;30;20050;-86
2023/09/03 10:36:13;;;;;;;3.00;2.70;;;;;;;24.10;67.08;100421.66;4752642;30;20032;-86
2023/09/03 10:38:38;;;;;;;3.30;2.80;;;;;;;23.92;67.64;100404.72;4752885;30;20491;-86
2023/09/03 10:41:21;;;;;;;4.25;3.20;;;;;;;23.86;66.73;100404.28;4752595;30;20031;-86
2023/09/03 10:43:48;;;;;;;3.25;2.65;;;;;;;23.90;67.69;100423.47;4738506;30;20499;-83
2023/09/03 10:46:14;;;;;;;3.15;2.85;;;;;;;23.88;69.68;100406.81;4736532;30;20487;-83
2023/09/03 10:48:39;;;;;;;3.05;2.72;;;;;;;23.89;69.90;100395.19;4752687;30;20182;-83
2023/09/03 10:51:05;;;;;;;2.65;2.45;;;;;;;24.18;68.67;100416.47;4751907;30;20518;-85
2023/09/03 10:53:39;;;;;;;2.72;2.50;;;;;;;24.38;67.69;100422.66;4730335;30;20501;-84
2023/09/03 10:56:09;;;;;;;2.85;2.65;;;;;;;24.56;66.03;100426.28;4741084;30;20025;-84
2023/09/03 10:58:34;;;;;;;3.00;2.80;;;;;;;24.48;68.01;100402.22;4744227;30;20471;-84
2023/09/03 11:01:38;;;;;;;2.70;2.50;;;;;;;24.77;68.17;100434.09;4744293;30;20036;-84
2023/09/03 11:04:04;;;;;;;4.15;3.08;;;;;;;24.72;65.36;100423.03;4689183;30;20076;-83
2023/09/03 11:06:33;;;;;;;2.75;2.55;;;;;;;24.72;66.05;100438.19;4689421;30;20069;-85
2023/09/03 11:08:59;;;;;;;2.47;2.28;;;;;;;24.80;68.15;100440.97;4689268;30;20064;-84
2023/09/03 11:11:27;;;;;;;3.80;3.10;;;;;;;24.17;68.23;100342.09;4687717;30;20033;-85
2023/09/03 11:13:53;;;;;;;3.20;2.90;;;;;;;24.82;68.71;100436.34;4688258;30;20079;-83
2023/09/03 11:16:39;;;;;;;3.55;2.78;;;;;;;24.69;66.95;100435.78;4689024;30;20166;-83
2023/09/03 11:19:07;;;;;;;2.42;2.22;;;;;;;24.52;65.82;100432.03;4687810;30;20045;-83
2023/09/03 11:21:33;;;;;;;2.67;2.45;;;;;;;24.29;64.90;100408.34;4688010;30;20053;-83
2023/09/03 11:24:01;;;;;;;2.47;2.28;;;;;;;24.30;65.09;100443.81;4699277;30;20044;-82
2023/09/03 11:26:28;;;;;;;2.80;2.60;;;;;;;24.15;65.58;100427.44;4722574;30;20124;-82
2023/09/03 11:28:53;;;;;;;2.65;2.42;;;;;;;23.48;68.26;100327.94;4722486;30;20036;-83
2023/09/03 11:31:19;;;;;;;4.22;2.47;;;;;;;23.55;67.20;100363.59;4724074;30;20044;-82
2023/09/03 11:33:45;;;;;;;2.75;2.55;;;;;;;23.75;65.56;100436.31;4723588;30;20372;-82
2023/09/03 11:36:11;;;;;;;2.53;2.33;;;;;;;23.58;68.15;100421.00;4760274;30;20433;-82
2023/09/03 11:38:37;;;;;;;2.60;2.38;;;;;;;23.49;65.84;100424.47;4743540;30;20112;-84
2023/09/03 11:41:02;;;;;;;2.75;2.33;;;;;;;23.12;64.82;100409.94;4761259;30;20549;-83
2023/09/03 11:43:29;;;;;;;3.13;2.63;;;;;;;23.11;66.59;100410.91;4758486;30;20089;-82
2023/09/03 11:45:55;;;;;;;3.55;2.75;;;;;;;23.12;68.06;100427.69;4759433;30;20471;-82
2023/09/03 11:48:25;;;;;;;3.63;2.67;;;;;;;22.99;70.11;100396.03;4744917;30;20433;-85
2023/09/03 11:50:52;;;;;;;3.10;2.90;;;;;;;23.16;69.35;100427.31;4744225;30;20043;-84
2023/09/03 11:53:17;;;;;;;4.07;2.95;;;;;;;22.88;68.01;100391.63;4742981;30;20121;-82
2023/09/03 11:55:48;;;;;;;3.25;2.47;;;;;;;22.96;70.54;100398.94;4744642;30;20570;-83
2023/09/03 11:58:17;;;;;;;3.42;2.97;;;;;;;23.23;70.92;100432.94;4760203;30;20028;-82
2023/09/03 12:00:44;;;;;;;2.70;2.50;;;;;;;23.17;70.32;100417.50;4746942;30;20027;-82
2023/09/03 12:03:10;;;;;;;3.28;2.88;;;;;;;23.22;69.63;100425.06;4759453;30;20024;-83
2023/09/03 12:05:36;;;;;;;3.42;3.10;;;;;;;23.09;69.55;100404.91;4759291;30;20040;-82
2023/09/03 12:08:04;;;;;;;2.85;2.63;;;;;;;23.25;70.64;100428.31;4744811;30;20035;-83
2023/09/03 12:10:31;;;;;;;3.78;3.05;;;;;;;23.24;70.53;100423.97;4757751;30;20511;-80
2023/09/03 12:13:01;;;;;;;3.03;2.72;;;;;;;23.33;71.63;100428.47;4744080;30;20020;-82
2023/09/03 12:15:29;;;;;;;3.47;3.17;;;;;;;22.93;70.45;100353.25;4758928;30;20151;-83
2023/09/03 12:18:05;;;;;;;3.72;2.75;;;;;;;23.35;70.87;100405.28;4759351;30;20168;-82
2023/09/03 12:20:30;;;;;;;3.33;3.00;;;;;;;23.52;71.12;100433.03;4757566;30;20452;-79
2023/09/03 12:23:05;;;;;;;2.80;2.60;;;;;;;23.29;71.78;100389.03;4760459;30;20107;-80
2023/09/03 12:25:33;;;;;;;2.75;2.55;;;;;;;23.36;71.25;100388.34;4761181;30;20139;-81
2023/09/03 12:27:59;;;;;;;3.42;2.92;;;;;;;23.63;72.16;100438.22;4758359;30;20055;-80
2023/09/03 12:30:24;;;;;;;3.30;2.92;;;;;;;23.61;72.22;100426.06;4760076;30;20055;-81
2023/09/03 12:32:53;;;;;;;3.30;3.00;;;;;;;23.67;71.86;100436.16;4743426;30;20117;-81
2023/09/03 12:35:19;;;;;;;4.57;3.15;;;;;;;23.57;70.30;100432.63;4758293;30;20028;-80
2023/09/03 12:37:44;;;;;;;3.65;2.58;;;;;;;23.62;72.33;100435.72;4760196;30;20399;-81
2023/09/03 12:40:10;;;;;;;3.72;3.13;;;;;;;23.67;71.44;100444.16;4742985;30;20085;-80
2023/09/03 12:42:36;;;;;;;3.25;2.95;;;;;;;23.68;72.07;100434.34;4742425;30;20028;-80
2023/09/03 12:45:02;;;;;;;4.18;2.88;;;;;;;23.65;71.55;100433.66;4760252;30;20036;-81
2023/09/03 12:47:27;;;;;;;2.80;2.60;;;;;;;23.61;71.23;100445.50;4759927;30;20505;-81
2023/09/03 12:49:53;;;;;;;5.00;2.92;;;;;;;23.53;70.94;100441.84;4759089;30;20059;-81
2023/09/03 12:52:19;;;;;;;3.13;2.92;;;;;;;23.47;71.29;100451.22;4760036;30;20027;-80
2023/09/03 12:54:45;;;;;;;3.38;3.08;;;;;;;23.35;70.66;100423.06;4758744;30;20028;-81
2023/09/03 12:57:10;;;;;;;3.67;2.90;;;;;;;23.41;72.66;100433.97;4758929;30;20032;-81
2023/09/03 12:59:36;;;;;;;3.35;2.90;;;;;;;23.15;71.32;100393.72;4759913;30;20032;-81
2023/09/03 13:02:02;;;;;;;3.53;3.22;;;;;;;23.22;70.56;100420.63;4758380;30;20036;-81
2023/09/03 13:04:28;;;;;;;2.95;2.72;;;;;;;23.34;72.76;100439.94;4759474;30;20173;-83
2023/09/03 13:06:53;;;;;;;4.53;3.30;;;;;;;23.13;72.25;100393.03;4743500;30;20077;-82
2023/09/03 13:09:18;;;;;;;2.85;2.65;;;;;;;23.40;71.88;100436.78;4759503;30;20028;-81
2023/09/03 13:11:44;;;;;;;3.50;3.15;;;;;;;23.18;72.84;100405.09;4758144;30;20024;-82
2023/09/03 13:14:09;;;;;;;3.55;3.05;;;;;;;23.34;74.00;100421.34;4759197;30;20411;-81
2023/09/03 13:16:35;;;;;;;3.30;3.00;;;;;;;23.33;71.65;100425.00;4759308;30;20039;-81
2023/09/03 13:19:00;;;;;;;3.33;3.03;;;;;;;23.38;72.98;100428.06;4758039;30;20051;-81
2023/09/03 13:21:26;;;;;;;3.42;3.13;;;;;;;23.47;73.78;100440.59;4761770;30;20039;-80
2023/09/03 13:23:52;;;;;;;3.28;2.97;;;;;;;23.52;73.31;100434.84;4762705;30;20356;-81
2023/09/03 13:26:17;;;;;;;4.07;3.38;;;;;;;23.47;74.87;100427.28;4745126;30;20051;-81
2023/09/03 13:28:43;;;;;;;4.18;3.13;;;;;;;23.46;72.35;100428.25;4763939;30;20028;-82
2023/09/03 13:31:08;;;;;;;3.17;2.88;;;;;;;23.26;72.50;100410.53;4762740;30;20028;-81